createdAt,value
2018-04-25T00:01:22.258Z,22.28
2018-04-25T00:03:48.319Z,22.28
2018-04-25T00:06:14.281Z,22.27
2018-04-25T00:08:40.183Z,22.26
2018-04-25T00:11:06.279Z,22.25
2018-04-25T00:13:32.220Z,22.25
2018-04-25T00:15:58.197Z,22.30
2018-04-25T00:18:24.133Z,22.32
2018-04-25T00:20:50.112Z,22.35
2018-04-25T00:23:16.080Z,22.34
2018-04-25T00:25:42.024Z,22.32
2018-04-25T00:28:07.983Z,22.32
2018-04-25T00:30:33.942Z,22.26
2018-04-25T00:32:59.895Z,22.28
2018-04-25T00:35:25.832Z,22.32
2018-04-25T00:37:51.771Z,22.28
2018-04-25T00:40:17.708Z,22.27
2018-04-25T00:42:43.651Z,22.26
2018-04-25T00:45:09.590Z,22.30
2018-04-25T00:47:35.556Z,22.28
2018-04-25T00:50:01.533Z,22.23
2018-04-25T00:52:27.475Z,22.24
2018-04-25T00:54:53.516Z,22.26
2018-04-25T00:57:19.468Z,22.25
2018-04-25T00:59:45.411Z,22.27
2018-04-25T01:02:11.445Z,22.25
2018-04-25T01:04:37.328Z,22.29
2018-04-25T01:07:03.263Z,22.29
2018-04-25T01:09:29.309Z,22.22
2018-04-25T01:11:55.349Z,22.30
2018-04-25T01:14:21.196Z,22.30
2018-04-25T01:16:47.176Z,22.25
2018-04-25T01:19:13.128Z,22.23
2018-04-25T01:21:39.123Z,22.26
2018-04-25T01:24:05.069Z,22.25
2018-04-25T01:26:31.020Z,22.28
2018-04-25T01:28:56.965Z,22.24
2018-04-25T01:31:22.912Z,22.27
2018-04-25T01:33:48.844Z,22.30
2018-04-25T01:36:14.793Z,22.26
2018-04-25T01:38:40.744Z,22.25
2018-04-25T01:41:06.680Z,22.23
2018-04-25T01:43:32.634Z,22.21
2018-04-25T01:45:58.528Z,22.22
2018-04-25T01:48:24.496Z,22.20
2018-04-25T01:50:50.444Z,22.26
2018-04-25T01:53:16.383Z,22.25
2018-04-25T01:55:42.391Z,22.27
2018-04-25T01:58:08.389Z,22.27
2018-04-25T02:00:34.316Z,22.29
2018-04-25T02:03:00.268Z,22.25
2018-04-25T02:05:26.212Z,22.26
2018-04-25T02:07:52.148Z,22.32
2018-04-25T02:10:18.089Z,22.21
2018-04-25T02:12:44.104Z,22.21
2018-04-25T02:15:10.048Z,22.23
2018-04-25T02:17:35.992Z,22.23
2018-04-25T02:20:01.933Z,22.26
2018-04-25T02:22:27.880Z,22.27
2018-04-25T02:24:53.824Z,22.24
2018-04-25T02:27:19.759Z,22.23
2018-04-25T02:29:45.732Z,22.23
2018-04-25T02:32:11.686Z,22.19
2018-04-25T02:34:37.655Z,22.23
2018-04-25T02:37:03.597Z,22.22
2018-04-25T02:39:29.552Z,22.26
2018-04-25T02:41:55.508Z,22.20
2018-04-25T02:44:21.440Z,22.25
2018-04-25T02:46:47.472Z,22.28
2018-04-25T02:49:13.422Z,22.28
2018-04-25T02:51:39.386Z,22.27
2018-04-25T02:54:05.323Z,22.27
2018-04-25T02:56:31.288Z,22.30
2018-04-25T02:58:57.318Z,22.29
2018-04-25T03:01:23.209Z,22.23
2018-04-25T03:03:49.165Z,22.26
2018-04-25T03:06:15.136Z,22.27
2018-04-25T03:08:41.068Z,22.24
2018-04-25T03:11:07.024Z,22.23
2018-04-25T03:13:32.975Z,22.23
2018-04-25T03:15:58.913Z,22.22
2018-04-25T03:18:24.853Z,22.23
2018-04-25T03:20:50.803Z,22.24
2018-04-25T03:23:16.751Z,22.22
2018-04-25T03:25:42.695Z,22.20
2018-04-25T03:28:08.644Z,22.18
2018-04-25T03:30:34.615Z,22.27
2018-04-25T03:33:00.552Z,22.28
2018-04-25T03:35:26.499Z,22.25
2018-04-25T03:37:52.448Z,22.29
2018-04-25T03:40:18.411Z,22.28
2018-04-25T03:42:44.351Z,22.26
2018-04-25T03:45:10.312Z,22.23
2018-04-25T03:47:36.256Z,22.22
2018-04-25T03:50:02.260Z,22.23
2018-04-25T03:52:28.208Z,22.24
2018-04-25T03:57:26.336Z,22.25
2018-04-25T03:59:52.295Z,22.23
2018-04-25T04:02:18.260Z,22.20
2018-04-25T04:04:44.288Z,22.20
2018-04-25T04:07:10.248Z,22.17
2018-04-25T04:09:36.209Z,22.13
2018-04-25T04:12:02.188Z,22.14
2018-04-25T04:14:28.135Z,22.17
2018-04-25T04:16:54.106Z,22.21
2018-04-25T04:19:20.054Z,22.22
2018-04-25T04:21:46.011Z,22.20
2018-04-25T04:24:11.960Z,22.16
2018-04-25T04:26:37.899Z,22.22
2018-04-25T04:29:03.875Z,22.17
2018-04-25T04:31:29.815Z,22.22
2018-04-25T04:33:55.761Z,22.22
2018-04-25T04:36:21.738Z,22.24
2018-04-25T04:38:47.686Z,22.23
2018-04-25T04:41:13.644Z,22.18
2018-04-25T04:43:39.585Z,22.23
2018-04-25T04:46:05.552Z,22.25
2018-04-25T04:48:31.512Z,22.18
2018-04-25T04:50:57.454Z,22.18
2018-04-25T04:53:23.417Z,22.16
2018-04-25T04:55:49.360Z,22.18
2018-04-25T04:58:15.322Z,22.17
2018-04-25T05:00:41.271Z,22.16
2018-04-25T05:03:07.220Z,22.16
2018-04-25T05:05:33.158Z,22.19
2018-04-25T05:07:59.118Z,22.20
2018-04-25T05:10:25.062Z,22.21
2018-04-25T05:12:51.016Z,22.20
2018-04-25T05:15:17.008Z,22.24
2018-04-25T05:17:42.943Z,22.19
2018-04-25T05:20:08.896Z,22.19
2018-04-25T05:22:34.858Z,22.15
2018-04-25T05:25:00.892Z,22.22
2018-04-25T05:27:26.847Z,22.17
2018-04-25T05:29:52.888Z,22.31
2018-04-25T05:32:18.836Z,22.23
2018-04-25T05:34:44.775Z,22.19
2018-04-25T05:37:10.732Z,22.12
2018-04-25T05:39:36.671Z,22.11
2018-04-25T05:42:02.633Z,22.18
2018-04-25T05:44:28.632Z,22.16
2018-04-25T05:46:54.600Z,22.16
2018-04-25T05:49:20.537Z,22.15
2018-04-25T05:51:46.489Z,22.16
2018-04-25T05:54:12.431Z,22.17
2018-04-25T05:56:38.397Z,22.18
2018-04-25T05:59:04.354Z,22.20
2018-04-25T06:01:30.296Z,22.22
2018-04-25T06:03:56.261Z,22.19
2018-04-25T06:06:22.212Z,22.16
2018-04-25T06:08:48.168Z,22.18
2018-04-25T06:11:14.111Z,22.19
2018-04-25T06:13:40.076Z,22.19
2018-04-25T06:16:06.025Z,22.17
2018-04-25T06:18:31.971Z,22.18
2018-04-25T06:20:57.912Z,22.20
2018-04-25T06:23:23.856Z,22.18
2018-04-25T06:25:49.811Z,22.12
2018-04-25T06:28:15.767Z,22.13
2018-04-25T06:30:41.728Z,22.16
2018-04-25T06:33:07.672Z,22.17
2018-04-25T06:35:33.634Z,22.11
2018-04-25T06:37:59.580Z,22.11
2018-04-25T06:40:25.516Z,22.10
2018-04-25T06:42:51.475Z,22.13
2018-04-25T06:45:17.460Z,22.21
2018-04-25T06:47:43.431Z,22.18
2018-04-25T06:50:09.362Z,22.16
2018-04-25T06:52:35.316Z,22.19
2018-04-25T06:55:01.260Z,22.20
2018-04-25T06:57:27.211Z,22.17
2018-04-25T06:59:53.158Z,22.16
2018-04-25T07:02:20.204Z,22.16
2018-04-25T07:04:46.247Z,22.11
2018-04-25T07:07:12.187Z,22.19
2018-04-25T07:09:38.136Z,22.19
2018-04-25T07:12:04.091Z,22.14
2018-04-25T07:14:30.044Z,22.11
2018-04-25T07:16:56.054Z,22.13
2018-04-25T07:19:21.996Z,22.09
2018-04-25T07:21:48.048Z,22.13
2018-04-25T07:24:13.997Z,22.13
2018-04-25T07:26:39.937Z,22.11
2018-04-25T07:29:05.901Z,22.16
2018-04-25T07:31:31.844Z,22.20
2018-04-25T07:33:57.805Z,22.16
2018-04-25T07:36:23.739Z,22.13
2018-04-25T07:38:49.809Z,22.10
2018-04-25T07:41:15.748Z,22.15
2018-04-25T07:43:41.704Z,22.13
2018-04-25T07:46:07.652Z,22.20
2018-04-25T07:48:33.604Z,22.16
2018-04-25T07:50:59.540Z,22.24
2018-04-25T07:53:25.483Z,22.24
2018-04-25T07:55:51.429Z,22.20
2018-04-25T07:58:17.380Z,22.22
2018-04-25T08:00:43.331Z,22.15
2018-04-25T08:03:09.295Z,22.17
2018-04-25T08:05:35.271Z,22.15
2018-04-25T08:08:01.232Z,22.14
2018-04-25T08:10:27.199Z,22.18
2018-04-25T08:12:53.200Z,22.20
2018-04-25T08:15:19.139Z,22.23
2018-04-25T08:17:45.181Z,22.24
2018-04-25T08:20:11.129Z,22.17
2018-04-25T08:22:37.067Z,22.19
2018-04-25T08:25:03.020Z,22.22
2018-04-25T08:27:29.032Z,22.24
2018-04-25T08:29:54.966Z,22.21
2018-04-25T08:32:20.976Z,22.20
2018-04-25T08:34:46.984Z,22.25
2018-04-25T08:37:12.924Z,22.28
2018-04-25T08:39:38.874Z,22.20
2018-04-25T08:42:04.823Z,22.19
2018-04-25T08:44:30.786Z,22.26
2018-04-25T08:46:56.732Z,22.26
2018-04-25T08:49:22.755Z,22.22
2018-04-25T08:51:48.693Z,22.13
2018-04-25T08:54:14.639Z,22.11
2018-04-25T08:56:40.596Z,22.12
2018-04-25T08:59:06.553Z,22.16
2018-04-25T09:01:32.490Z,22.22
2018-04-25T09:03:58.444Z,22.21
2018-04-25T09:06:24.411Z,22.21
2018-04-25T09:08:50.393Z,22.20
2018-04-25T09:11:16.336Z,22.21
2018-04-25T09:13:42.329Z,22.20
2018-04-25T09:16:08.298Z,22.18
2018-04-25T09:18:34.261Z,22.15
2018-04-25T09:21:00.225Z,22.18
2018-04-25T09:23:26.176Z,22.25
2018-04-25T09:25:52.136Z,22.24
2018-04-25T09:28:18.359Z,22.24
2018-04-25T09:30:44.308Z,22.25
2018-04-25T09:33:10.249Z,22.27
2018-04-25T09:35:36.236Z,22.30
2018-04-25T09:38:02.221Z,22.31
2018-04-25T09:40:28.180Z,22.30
2018-04-25T09:42:54.153Z,22.29
2018-04-25T09:45:20.073Z,22.29
2018-04-25T09:47:46.025Z,22.30
2018-04-25T09:50:11.999Z,22.58
2018-04-25T09:52:37.929Z,22.28
2018-04-25T09:55:03.884Z,22.37
2018-04-25T09:57:29.906Z,22.27
2018-04-25T09:59:55.812Z,22.28
2018-04-25T10:02:21.980Z,22.25
2018-04-25T10:04:48.029Z,22.28
2018-04-25T10:07:13.989Z,22.30
2018-04-25T10:09:39.957Z,22.24
2018-04-25T10:12:06.096Z,22.28
2018-04-25T10:14:32.032Z,22.28
2018-04-25T10:16:58.057Z,22.28
2018-04-25T10:19:23.929Z,22.32
2018-04-25T10:21:49.892Z,22.36
2018-04-25T10:24:15.842Z,22.31
2018-04-25T10:26:41.783Z,22.31
2018-04-25T10:29:07.720Z,22.31
2018-04-25T10:31:33.690Z,22.30
2018-04-25T10:33:59.720Z,22.32
2018-04-25T10:36:25.668Z,22.33
2018-04-25T10:38:51.615Z,22.34
2018-04-25T10:41:17.561Z,22.36
2018-04-25T10:43:43.534Z,22.33
2018-04-25T10:46:09.484Z,22.35
2018-04-25T10:48:35.445Z,22.38
2018-04-25T10:51:01.408Z,22.39
2018-04-25T10:53:27.364Z,22.50
2018-04-25T10:55:53.308Z,22.61
2018-04-25T10:58:19.247Z,22.52
2018-04-25T11:00:45.208Z,22.34
2018-04-25T11:03:11.165Z,22.42
2018-04-25T11:05:37.100Z,22.35
2018-04-25T11:08:03.125Z,22.34
2018-04-25T11:10:29.080Z,22.32
2018-04-25T11:12:55.042Z,22.28
2018-04-25T11:15:20.988Z,22.29
2018-04-25T11:17:46.934Z,22.25
2018-04-25T11:20:12.882Z,22.21
2018-04-25T11:22:38.828Z,22.19
2018-04-25T11:25:04.768Z,22.21
2018-04-25T11:27:30.737Z,22.20
2018-04-25T11:29:56.689Z,22.21
2018-04-25T11:32:22.649Z,22.21
2018-04-25T11:34:48.590Z,22.23
2018-04-25T11:37:14.549Z,22.19
2018-04-25T11:39:40.501Z,22.22
2018-04-25T11:42:06.463Z,22.23
2018-04-25T11:44:32.431Z,22.23
2018-04-25T11:46:58.484Z,22.24
2018-04-25T11:49:24.428Z,22.23
2018-04-25T11:51:50.367Z,22.20
2018-04-25T11:54:16.328Z,22.21
2018-04-25T11:56:42.260Z,22.25
2018-04-25T11:59:08.252Z,22.23
2018-04-25T12:01:34.193Z,22.19
2018-04-25T12:04:00.153Z,22.17
2018-04-25T12:06:26.233Z,22.27
2018-04-25T12:08:52.187Z,22.23
2018-04-25T12:11:18.124Z,22.23
2018-04-25T12:13:44.144Z,22.17
2018-04-25T12:16:10.100Z,22.19
2018-04-25T12:18:36.053Z,22.39
2018-04-25T12:21:01.999Z,22.28
2018-04-25T12:23:27.951Z,22.45
2018-04-25T12:25:53.890Z,22.52
2018-04-25T12:28:19.878Z,22.60
2018-04-25T12:30:45.806Z,22.58
2018-04-25T12:33:11.781Z,22.64
2018-04-25T12:35:37.740Z,22.33
2018-04-25T12:38:03.728Z,22.28
2018-04-25T12:40:29.676Z,22.30
2018-04-25T12:42:55.628Z,22.33
2018-04-25T12:45:21.570Z,22.29
2018-04-25T12:47:47.531Z,22.31
2018-04-25T12:50:13.479Z,22.33
2018-04-25T12:52:39.434Z,22.30
2018-04-25T12:55:05.367Z,22.31
2018-04-25T12:57:31.333Z,22.35
2018-04-25T12:59:57.298Z,22.39
2018-04-25T13:02:23.304Z,22.37
2018-04-25T13:04:49.253Z,22.38
2018-04-25T13:07:15.220Z,22.37
2018-04-25T13:09:41.184Z,22.39
2018-04-25T13:12:07.149Z,22.39
2018-04-25T13:14:33.108Z,22.40
2018-04-25T13:16:59.067Z,22.51
2018-04-25T13:19:25.015Z,22.55
2018-04-25T13:21:50.967Z,22.39
2018-04-25T13:24:16.926Z,22.48
2018-04-25T13:26:42.861Z,22.39
2018-04-25T13:29:08.915Z,22.34
2018-04-25T13:31:34.851Z,22.29
2018-04-25T13:34:00.792Z,22.51
2018-04-25T13:36:26.753Z,22.42
2018-04-25T13:38:52.707Z,22.34
2018-04-25T13:41:18.652Z,22.28
2018-04-25T13:43:44.612Z,22.33
2018-04-25T13:46:10.585Z,22.50
2018-04-25T13:48:36.624Z,22.42
2018-04-25T13:51:02.520Z,22.53
2018-04-25T13:53:28.511Z,22.41
2018-04-25T13:55:54.472Z,22.31
2018-04-25T13:58:20.469Z,22.41
2018-04-25T14:00:46.499Z,22.36
2018-04-25T14:03:12.386Z,22.49
2018-04-25T14:05:38.325Z,22.46
2018-04-25T14:08:04.291Z,22.51
2018-04-25T14:10:30.243Z,22.50
2018-04-25T14:12:56.216Z,22.47
2018-04-25T14:15:22.136Z,22.45
2018-04-25T14:17:48.088Z,22.47
2018-04-25T14:20:14.060Z,22.49
2018-04-25T14:22:40.019Z,22.46
2018-04-25T14:25:05.992Z,22.40
2018-04-25T14:27:31.948Z,22.41
2018-04-25T14:29:57.914Z,22.47
2018-04-25T14:32:23.869Z,22.49
2018-04-25T14:34:49.832Z,22.45
2018-04-25T14:37:15.796Z,22.47
2018-04-25T14:39:41.746Z,22.47
2018-04-25T14:42:07.727Z,22.47
2018-04-25T14:44:33.664Z,22.52
2018-04-25T14:46:59.661Z,22.52
2018-04-25T14:49:25.608Z,22.47
2018-04-25T14:51:51.548Z,22.47
2018-04-25T14:54:17.500Z,22.47
2018-04-25T14:56:43.457Z,22.32
2018-04-25T14:59:09.432Z,22.41
2018-04-25T15:01:35.458Z,22.52
2018-04-25T15:04:01.400Z,22.37
2018-04-25T15:06:27.340Z,22.49
2018-04-25T15:08:53.311Z,22.54
2018-04-25T15:11:19.255Z,22.44
2018-04-25T15:13:45.207Z,22.55
2018-04-25T15:16:11.227Z,22.43
2018-04-25T15:18:37.172Z,22.47
2018-04-25T15:21:03.120Z,22.37
2018-04-25T15:23:29.088Z,22.33
2018-04-25T15:25:55.033Z,22.53
2018-04-25T15:28:21.047Z,22.35
2018-04-25T15:30:47.006Z,22.40
2018-04-25T15:33:13.001Z,22.50
2018-04-25T15:35:38.967Z,22.57
2018-04-25T15:38:04.916Z,22.46
2018-04-25T15:40:30.876Z,22.47
2018-04-25T15:42:56.831Z,22.46
2018-04-25T15:45:22.784Z,22.47
2018-04-25T15:47:48.720Z,22.44
2018-04-25T15:50:14.700Z,22.53
2018-04-25T15:52:40.676Z,22.58
2018-04-25T15:55:06.623Z,22.54
2018-04-25T15:57:32.564Z,22.54
2018-04-25T15:59:58.521Z,22.54
2018-04-25T16:02:24.568Z,22.56
2018-04-25T16:04:50.543Z,22.58
2018-04-25T16:07:16.506Z,22.46
2018-04-25T16:09:42.464Z,22.52
2018-04-25T16:12:08.487Z,22.48
2018-04-25T16:14:34.388Z,22.45
2018-04-25T16:17:00.372Z,22.41
2018-04-25T16:19:26.332Z,22.44
2018-04-25T16:21:52.285Z,22.47
2018-04-25T16:24:18.240Z,22.39
2018-04-25T16:26:44.188Z,22.38
2018-04-25T16:29:10.152Z,22.36
2018-04-25T16:31:36.115Z,22.33
2018-04-25T16:34:02.092Z,22.34
2018-04-25T16:36:28.056Z,22.34
2018-04-25T16:38:54.028Z,22.28
2018-04-25T16:41:19.991Z,22.37
2018-04-25T16:43:45.940Z,22.45
2018-04-25T16:46:11.881Z,22.38
2018-04-25T16:48:37.860Z,22.37
2018-04-25T16:51:03.800Z,22.37
2018-04-25T16:53:29.764Z,22.38
2018-04-25T16:55:55.723Z,22.42
2018-04-25T16:58:21.713Z,22.30
2018-04-25T17:00:47.663Z,22.37
2018-04-25T17:03:13.631Z,22.27
2018-04-25T17:05:39.589Z,22.30
2018-04-25T17:08:05.548Z,22.27
2018-04-25T17:10:31.491Z,22.26
2018-04-25T17:12:57.453Z,22.25
2018-04-25T17:15:23.399Z,22.28
2018-04-25T17:17:49.352Z,22.28
2018-04-25T17:20:15.320Z,22.21
2018-04-25T17:22:41.288Z,22.31
2018-04-25T17:25:07.266Z,22.36
2018-04-25T17:27:33.322Z,22.34
2018-04-25T17:29:59.273Z,22.36
2018-04-25T17:32:25.229Z,22.41
2018-04-25T17:34:51.205Z,22.47
2018-04-25T17:37:17.158Z,22.37
2018-04-25T17:39:43.100Z,22.44
2018-04-25T17:42:09.052Z,22.58
2018-04-25T17:44:35.030Z,22.50
2018-04-25T17:47:00.990Z,22.46
2018-04-25T17:49:26.952Z,22.46
2018-04-25T17:51:52.905Z,22.40
2018-04-25T17:54:18.843Z,22.56
2018-04-25T17:56:44.791Z,22.43
2018-04-25T17:59:10.760Z,22.50
2018-04-25T18:01:36.721Z,22.46
2018-04-25T18:04:02.744Z,22.44
2018-04-25T18:06:28.705Z,22.46
2018-04-25T18:08:54.716Z,22.42
2018-04-25T18:11:20.668Z,22.42
2018-04-25T18:13:46.613Z,22.43
2018-04-25T18:16:12.664Z,22.48
2018-04-25T18:18:38.640Z,22.44
2018-04-25T18:21:04.584Z,22.41
2018-04-25T18:23:30.573Z,22.41
2018-04-25T18:25:56.551Z,22.46
2018-04-25T18:28:22.503Z,22.49
2018-04-25T18:30:48.459Z,22.40
2018-04-25T18:33:14.412Z,22.49
2018-04-25T18:35:40.386Z,22.45
2018-04-25T18:38:06.324Z,22.36
2018-04-25T18:40:32.296Z,22.29
2018-04-25T18:42:58.249Z,22.20
2018-04-25T18:45:24.204Z,22.39
2018-04-25T18:47:50.141Z,22.11
2018-04-25T18:50:16.095Z,22.09
2018-04-25T18:52:42.089Z,22.05
2018-04-25T18:55:08.068Z,22.07
2018-04-25T18:57:34.044Z,22.02
2018-04-25T19:00:00.000Z,22.00
2018-04-25T19:02:25.969Z,22.02
2018-04-25T19:04:51.912Z,22.02
2018-04-25T19:07:17.899Z,21.97
2018-04-25T19:09:43.863Z,22.06
2018-04-25T19:12:09.840Z,22.04
2018-04-25T19:14:35.786Z,22.02
2018-04-25T19:17:01.726Z,22.10
2018-04-25T19:19:27.644Z,22.08
2018-04-25T19:21:53.578Z,22.04
2018-04-25T19:24:19.633Z,22.11
2018-04-25T19:26:45.581Z,22.10
2018-04-25T19:29:11.539Z,22.11
2018-04-25T19:31:37.513Z,22.08
2018-04-25T19:34:03.503Z,22.08
2018-04-25T19:36:29.460Z,22.06
2018-04-25T19:38:55.507Z,22.09
2018-04-25T19:41:21.449Z,22.09
2018-04-25T19:43:47.404Z,22.14
2018-04-25T19:46:13.349Z,22.15
2018-04-25T19:48:39.294Z,22.16
2018-04-25T19:51:05.244Z,22.13
2018-04-25T19:53:31.207Z,22.08
2018-04-25T19:55:57.159Z,22.16
2018-04-25T19:58:23.099Z,22.13
2018-04-25T20:00:49.049Z,22.10
2018-04-25T20:03:15.092Z,22.10
2018-04-25T20:05:41.053Z,22.04
2018-04-25T20:08:07.002Z,22.07
2018-04-25T20:10:32.977Z,22.08
2018-04-25T20:12:58.945Z,22.10
2018-04-25T20:15:24.939Z,22.09
2018-04-25T20:17:50.952Z,22.09
2018-04-25T20:20:16.980Z,22.14
2018-04-25T20:22:42.905Z,22.21
2018-04-25T20:25:08.906Z,22.18
2018-04-25T20:27:34.867Z,22.10
2018-04-25T20:30:00.816Z,22.12
2018-04-25T20:32:26.765Z,22.15
2018-04-25T20:34:52.700Z,22.21
2018-04-25T20:37:18.664Z,22.22
2018-04-25T20:39:44.599Z,22.18
2018-04-25T20:42:10.587Z,22.24
2018-04-25T20:44:36.550Z,22.14
2018-04-25T20:47:02.512Z,22.11
2018-04-25T20:49:28.456Z,22.19
2018-04-25T20:51:54.419Z,22.08
2018-04-25T20:54:20.400Z,22.07
2018-04-25T20:56:46.374Z,22.04
2018-04-25T20:59:12.339Z,22.03
2018-04-25T21:01:38.288Z,22.04
2018-04-25T21:04:04.292Z,22.04
2018-04-25T21:06:30.292Z,22.06
2018-04-25T21:08:56.224Z,22.04
2018-04-25T21:11:22.177Z,22.05
2018-04-25T21:13:48.118Z,22.03
2018-04-25T21:16:14.057Z,22.07
2018-04-25T21:18:40.008Z,22.00
2018-04-25T21:21:06.280Z,22.04
2018-04-25T21:23:32.249Z,22.04
2018-04-25T21:25:58.208Z,22.04
2018-04-25T21:28:24.169Z,22.03
2018-04-25T21:30:50.124Z,22.01
2018-04-25T21:33:16.081Z,22.02
2018-04-25T21:35:42.029Z,21.99
2018-04-25T21:38:07.972Z,21.97
2018-04-25T21:40:33.916Z,21.97
2018-04-25T21:42:59.873Z,21.98
2018-04-25T21:45:25.838Z,22.19
2018-04-25T21:47:51.784Z,22.20
2018-04-25T21:50:17.719Z,22.02
2018-04-25T21:52:43.667Z,21.97
2018-04-25T21:55:09.630Z,21.97
2018-04-25T21:57:35.592Z,21.99
2018-04-25T22:00:01.545Z,22.04
2018-04-25T22:02:27.501Z,21.98
2018-04-25T22:04:53.465Z,21.99
2018-04-25T22:07:19.524Z,22.01
2018-04-25T22:09:45.504Z,21.97
2018-04-25T22:12:11.466Z,21.96
2018-04-25T22:14:37.440Z,22.00
2018-04-25T22:17:03.422Z,22.00
2018-04-25T22:19:29.385Z,21.96
2018-04-25T22:21:55.328Z,21.93
2018-04-25T22:24:21.291Z,21.94
2018-04-25T22:26:47.249Z,21.94
2018-04-25T22:29:13.228Z,21.88
2018-04-25T22:31:39.197Z,21.87
2018-04-25T22:34:05.179Z,21.88
2018-04-25T22:36:31.249Z,21.90
2018-04-25T22:38:57.260Z,21.91
2018-04-25T22:41:23.228Z,21.90
2018-04-25T22:43:49.231Z,21.91
2018-04-25T22:46:15.403Z,21.90
2018-04-25T22:48:41.387Z,21.91
2018-04-25T22:51:07.414Z,21.91
2018-04-25T22:53:33.396Z,21.88
2018-04-25T22:55:59.361Z,21.94
2018-04-25T22:58:25.399Z,21.84
2018-04-25T23:00:51.391Z,21.88
2018-04-25T23:03:17.567Z,21.98
2018-04-25T23:05:43.587Z,21.88
2018-04-25T23:08:09.604Z,21.92
2018-04-25T23:10:35.614Z,21.91
2018-04-25T23:13:01.672Z,21.89
2018-04-25T23:15:27.689Z,21.88
2018-04-25T23:17:53.678Z,21.87
2018-04-25T23:20:19.646Z,21.86
2018-04-25T23:22:45.666Z,21.84
2018-04-25T23:25:11.696Z,21.86
2018-04-25T23:27:37.676Z,21.82
2018-04-25T23:30:03.697Z,21.86
2018-04-25T23:32:29.670Z,21.89
2018-04-25T23:34:55.643Z,21.88
2018-04-25T23:37:21.704Z,21.88
2018-04-25T23:39:47.664Z,21.86
2018-04-25T23:42:13.840Z,21.89
2018-04-25T23:44:39.792Z,21.90
2018-04-25T23:47:05.757Z,21.84
2018-04-25T23:49:31.706Z,21.87
2018-04-25T23:51:57.656Z,21.87
2018-04-25T23:54:23.604Z,21.83
2018-04-25T23:56:49.548Z,21.79
2018-04-25T23:59:15.493Z,21.90
